sensor_id;sensor_type;location;lat;lon;timestamp;P1;durP1;ratioP1;P2;durP2;ratioP2
26906;SDS011;14472;56.880;16.658;2023-11-19T00:00:29;3.30;;;1.97;;
26906;SDS011;14472;56.880;16.658;2023-11-19T00:02:54;5.37;;;2.13;;
26906;SDS011;14472;56.880;16.658;2023-11-19T00:05:20;3.33;;;2.00;;
26906;SDS011;14472;56.880;16.658;2023-11-19T00:07:46;2.03;;;1.80;;
26906;SDS011;14472;56.880;16.658;2023-11-19T00:10:12;2.30;;;1.80;;
26906;SDS011;14472;56.880;16.658;2023-11-19T00:12:44;1.83;;;1.60;;
26906;SDS011;14472;56.880;16.658;2023-11-19T00:15:11;2.00;;;1.60;;
26906;SDS011;14472;56.880;16.658;2023-11-19T00:17:41;1.73;;;1.40;;
26906;SDS011;14472;56.880;16.658;2023-11-19T00:20:10;1.77;;;1.33;;
26906;SDS011;14472;56.880;16.658;2023-11-19T00:22:40;2.30;;;1.80;;
26906;SDS011;14472;56.880;16.658;2023-11-19T00:25:07;1.50;;;1.40;;
26906;SDS011;14472;56.880;16.658;2023-11-19T00:27:33;2.27;;;1.83;;
26906;SDS011;14472;56.880;16.658;2023-11-19T00:29:59;1.97;;;1.50;;
26906;SDS011;14472;56.880;16.658;2023-11-19T00:32:25;2.07;;;1.63;;
26906;SDS011;14472;56.880;16.658;2023-11-19T00:34:51;2.40;;;1.80;;
26906;SDS011;14472;56.880;16.658;2023-11-19T00:37:16;2.10;;;1.73;;
26906;SDS011;14472;56.880;16.658;2023-11-19T00:39:42;1.93;;;1.73;;
26906;SDS011;14472;56.880;16.658;2023-11-19T00:42:09;2.30;;;1.87;;
26906;SDS011;14472;56.880;16.658;2023-11-19T00:44:35;2.17;;;1.70;;
26906;SDS011;14472;56.880;16.658;2023-11-19T00:47:01;1.97;;;1.70;;
26906;SDS011;14472;56.880;16.658;2023-11-19T00:49:27;2.27;;;1.70;;
26906;SDS011;14472;56.880;16.658;2023-11-19T00:51:53;1.77;;;1.57;;
26906;SDS011;14472;56.880;16.658;2023-11-19T00:54:19;1.90;;;1.67;;
26906;SDS011;14472;56.880;16.658;2023-11-19T00:56:45;1.60;;;1.50;;
26906;SDS011;14472;56.880;16.658;2023-11-19T00:59:10;2.23;;;1.60;;
26906;SDS011;14472;56.880;16.658;2023-11-19T01:01:37;1.67;;;1.47;;
26906;SDS011;14472;56.880;16.658;2023-11-19T01:04:02;1.90;;;1.63;;
26906;SDS011;14472;56.880;16.658;2023-11-19T01:06:29;2.10;;;1.50;;
26906;SDS011;14472;56.880;16.658;2023-11-19T01:08:56;1.70;;;1.60;;
26906;SDS011;14472;56.880;16.658;2023-11-19T01:11:22;1.60;;;1.50;;
26906;SDS011;14472;56.880;16.658;2023-11-19T01:13:48;2.00;;;1.57;;
26906;SDS011;14472;56.880;16.658;2023-11-19T01:16:15;3.00;;;1.50;;
26906;SDS011;14472;56.880;16.658;2023-11-19T01:18:41;1.53;;;1.30;;
26906;SDS011;14472;56.880;16.658;2023-11-19T01:21:07;2.20;;;1.37;;
26906;SDS011;14472;56.880;16.658;2023-11-19T01:23:33;1.50;;;1.40;;
26906;SDS011;14472;56.880;16.658;2023-11-19T01:25:59;4.20;;;1.40;;
26906;SDS011;14472;56.880;16.658;2023-11-19T01:28:25;2.87;;;1.83;;
26906;SDS011;14472;56.880;16.658;2023-11-19T01:30:51;2.00;;;1.70;;
26906;SDS011;14472;56.880;16.658;2023-11-19T01:33:17;2.33;;;2.13;;
26906;SDS011;14472;56.880;16.658;2023-11-19T01:35:43;2.70;;;1.63;;
26906;SDS011;14472;56.880;16.658;2023-11-19T01:38:09;1.50;;;1.40;;
26906;SDS011;14472;56.880;16.658;2023-11-19T01:40:35;1.60;;;1.50;;
26906;SDS011;14472;56.880;16.658;2023-11-19T01:43:02;1.70;;;1.60;;
26906;SDS011;14472;56.880;16.658;2023-11-19T01:45:28;1.63;;;1.50;;
26906;SDS011;14472;56.880;16.658;2023-11-19T01:47:58;2.03;;;1.60;;
26906;SDS011;14472;56.880;16.658;2023-11-19T01:50:27;1.47;;;1.30;;
26906;SDS011;14472;56.880;16.658;2023-11-19T01:52:53;1.83;;;1.60;;
26906;SDS011;14472;56.880;16.658;2023-11-19T01:55:22;2.67;;;1.60;;
26906;SDS011;14472;56.880;16.658;2023-11-19T01:57:49;2.20;;;1.60;;
26906;SDS011;14472;56.880;16.658;2023-11-19T02:00:16;1.73;;;1.57;;
26906;SDS011;14472;56.880;16.658;2023-11-19T02:02:44;1.67;;;1.53;;
26906;SDS011;14472;56.880;16.658;2023-11-19T02:05:11;2.40;;;1.57;;
26906;SDS011;14472;56.880;16.658;2023-11-19T02:07:41;1.50;;;1.40;;
26906;SDS011;14472;56.880;16.658;2023-11-19T02:10:07;1.50;;;1.40;;
26906;SDS011;14472;56.880;16.658;2023-11-19T02:12:42;1.77;;;1.50;;
26906;SDS011;14472;56.880;16.658;2023-11-19T02:15:08;1.83;;;1.73;;
26906;SDS011;14472;56.880;16.658;2023-11-19T02:17:35;1.70;;;1.60;;
26906;SDS011;14472;56.880;16.658;2023-11-19T02:20:03;2.13;;;1.47;;
26906;SDS011;14472;56.880;16.658;2023-11-19T02:22:40;1.60;;;1.50;;
26906;SDS011;14472;56.880;16.658;2023-11-19T02:25:12;1.60;;;1.50;;
26906;SDS011;14472;56.880;16.658;2023-11-19T02:30:22;1.43;;;1.33;;
26906;SDS011;14472;56.880;16.658;2023-11-19T02:32:54;1.60;;;1.50;;
26906;SDS011;14472;56.880;16.658;2023-11-19T02:35:25;1.50;;;1.40;;
26906;SDS011;14472;56.880;16.658;2023-11-19T02:37:52;2.83;;;1.30;;
26906;SDS011;14472;56.880;16.658;2023-11-19T02:40:17;1.90;;;1.30;;
26906;SDS011;14472;56.880;16.658;2023-11-19T02:42:43;1.40;;;1.30;;
26906;SDS011;14472;56.880;16.658;2023-11-19T02:45:09;2.10;;;1.60;;
26906;SDS011;14472;56.880;16.658;2023-11-19T02:47:39;1.53;;;1.43;;
26906;SDS011;14472;56.880;16.658;2023-11-19T02:50:07;1.73;;;1.50;;
26906;SDS011;14472;56.880;16.658;2023-11-19T02:52:39;1.97;;;1.57;;
26906;SDS011;14472;56.880;16.658;2023-11-19T02:55:10;1.50;;;1.40;;
26906;SDS011;14472;56.880;16.658;2023-11-19T02:57:38;1.70;;;1.50;;
26906;SDS011;14472;56.880;16.658;2023-11-19T03:00:11;1.73;;;1.63;;
26906;SDS011;14472;56.880;16.658;2023-11-19T03:02:39;1.63;;;1.50;;
26906;SDS011;14472;56.880;16.658;2023-11-19T03:05:10;2.83;;;1.57;;
26906;SDS011;14472;56.880;16.658;2023-11-19T03:07:37;1.47;;;1.37;;
26906;SDS011;14472;56.880;16.658;2023-11-19T03:10:02;1.63;;;1.50;;
26906;SDS011;14472;56.880;16.658;2023-11-19T03:12:30;1.87;;;1.40;;
26906;SDS011;14472;56.880;16.658;2023-11-19T03:14:56;1.97;;;1.60;;
26906;SDS011;14472;56.880;16.658;2023-11-19T03:17:22;2.20;;;1.90;;
26906;SDS011;14472;56.880;16.658;2023-11-19T03:19:49;2.23;;;1.77;;
26906;SDS011;14472;56.880;16.658;2023-11-19T03:22:15;2.00;;;1.70;;
26906;SDS011;14472;56.880;16.658;2023-11-19T03:24:40;1.60;;;1.50;;
26906;SDS011;14472;56.880;16.658;2023-11-19T03:27:06;1.57;;;1.30;;
26906;SDS011;14472;56.880;16.658;2023-11-19T03:29:32;1.33;;;1.23;;
26906;SDS011;14472;56.880;16.658;2023-11-19T03:31:57;1.57;;;1.30;;
26906;SDS011;14472;56.880;16.658;2023-11-19T03:34:23;2.33;;;1.30;;
26906;SDS011;14472;56.880;16.658;2023-11-19T03:36:49;2.17;;;1.57;;
26906;SDS011;14472;56.880;16.658;2023-11-19T03:39:14;2.40;;;1.20;;
26906;SDS011;14472;56.880;16.658;2023-11-19T03:41:40;2.17;;;1.20;;
26906;SDS011;14472;56.880;16.658;2023-11-19T03:44:05;1.20;;;1.10;;
26906;SDS011;14472;56.880;16.658;2023-11-19T03:46:31;1.00;;;1.00;;
26906;SDS011;14472;56.880;16.658;2023-11-19T03:48:57;1.70;;;1.20;;
26906;SDS011;14472;56.880;16.658;2023-11-19T03:51:22;1.30;;;1.20;;
26906;SDS011;14472;56.880;16.658;2023-11-19T03:53:48;1.50;;;1.00;;
26906;SDS011;14472;56.880;16.658;2023-11-19T03:56:14;1.30;;;1.20;;
26906;SDS011;14472;56.880;16.658;2023-11-19T03:58:39;2.37;;;1.30;;
26906;SDS011;14472;56.880;16.658;2023-11-19T04:01:05;1.40;;;1.20;;
26906;SDS011;14472;56.880;16.658;2023-11-19T04:03:35;1.37;;;1.10;;
26906;SDS011;14472;56.880;16.658;2023-11-19T04:06:01;1.33;;;1.07;;
26906;SDS011;14472;56.880;16.658;2023-11-19T04:08:27;1.20;;;1.10;;
26906;SDS011;14472;56.880;16.658;2023-11-19T04:10:54;1.20;;;1.10;;
26906;SDS011;14472;56.880;16.658;2023-11-19T04:13:19;1.27;;;1.17;;
26906;SDS011;14472;56.880;16.658;2023-11-19T04:15:45;1.20;;;1.10;;
26906;SDS011;14472;56.880;16.658;2023-11-19T04:18:11;1.10;;;1.00;;
26906;SDS011;14472;56.880;16.658;2023-11-19T04:20:37;1.50;;;1.40;;
26906;SDS011;14472;56.880;16.658;2023-11-19T04:23:02;1.40;;;1.10;;
26906;SDS011;14472;56.880;16.658;2023-11-19T04:25:28;0.90;;;0.90;;
26906;SDS011;14472;56.880;16.658;2023-11-19T04:27:54;1.30;;;1.20;;
26906;SDS011;14472;56.880;16.658;2023-11-19T04:30:19;1.00;;;0.90;;
26906;SDS011;14472;56.880;16.658;2023-11-19T04:32:45;1.27;;;0.90;;
26906;SDS011;14472;56.880;16.658;2023-11-19T04:35:11;1.10;;;1.00;;
26906;SDS011;14472;56.880;16.658;2023-11-19T04:37:37;1.83;;;1.20;;
26906;SDS011;14472;56.880;16.658;2023-11-19T04:40:03;1.20;;;1.10;;
26906;SDS011;14472;56.880;16.658;2023-11-19T04:42:29;1.33;;;1.23;;
26906;SDS011;14472;56.880;16.658;2023-11-19T04:44:55;1.30;;;1.20;;
26906;SDS011;14472;56.880;16.658;2023-11-19T04:47:21;2.20;;;1.30;;
26906;SDS011;14472;56.880;16.658;2023-11-19T04:49:46;1.40;;;1.30;;
26906;SDS011;14472;56.880;16.658;2023-11-19T04:52:12;1.30;;;1.20;;
26906;SDS011;14472;56.880;16.658;2023-11-19T04:54:43;1.33;;;1.20;;
26906;SDS011;14472;56.880;16.658;2023-11-19T04:57:09;1.33;;;1.20;;
26906;SDS011;14472;56.880;16.658;2023-11-19T04:59:38;1.10;;;1.00;;
26906;SDS011;14472;56.880;16.658;2023-11-19T05:02:04;1.90;;;1.13;;
26906;SDS011;14472;56.880;16.658;2023-11-19T05:04:30;0.90;;;0.90;;
26906;SDS011;14472;56.880;16.658;2023-11-19T05:06:56;1.20;;;1.10;;
26906;SDS011;14472;56.880;16.658;2023-11-19T05:09:22;1.30;;;1.20;;
26906;SDS011;14472;56.880;16.658;2023-11-19T05:11:48;1.87;;;1.37;;
26906;SDS011;14472;56.880;16.658;2023-11-19T05:14:14;1.70;;;1.50;;
26906;SDS011;14472;56.880;16.658;2023-11-19T05:16:40;1.33;;;1.10;;
26906;SDS011;14472;56.880;16.658;2023-11-19T05:19:06;1.87;;;1.27;;
26906;SDS011;14472;56.880;16.658;2023-11-19T05:21:32;1.23;;;1.13;;
26906;SDS011;14472;56.880;16.658;2023-11-19T05:23:58;1.57;;;1.40;;
26906;SDS011;14472;56.880;16.658;2023-11-19T05:26:24;1.97;;;1.40;;
26906;SDS011;14472;56.880;16.658;2023-11-19T05:28:50;1.67;;;1.47;;
26906;SDS011;14472;56.880;16.658;2023-11-19T05:31:16;2.40;;;1.40;;
26906;SDS011;14472;56.880;16.658;2023-11-19T05:33:42;1.27;;;1.17;;
26906;SDS011;14472;56.880;16.658;2023-11-19T05:36:10;1.67;;;1.40;;
26906;SDS011;14472;56.880;16.658;2023-11-19T05:38:37;1.47;;;1.30;;
26906;SDS011;14472;56.880;16.658;2023-11-19T05:41:03;2.60;;;1.50;;
26906;SDS011;14472;56.880;16.658;2023-11-19T05:43:30;2.90;;;2.30;;
26906;SDS011;14472;56.880;16.658;2023-11-19T05:45:56;3.37;;;2.73;;
26906;SDS011;14472;56.880;16.658;2023-11-19T05:48:21;3.03;;;2.20;;
26906;SDS011;14472;56.880;16.658;2023-11-19T05:50:47;3.67;;;2.97;;
26906;SDS011;14472;56.880;16.658;2023-11-19T05:53:15;3.70;;;2.63;;
26906;SDS011;14472;56.880;16.658;2023-11-19T05:55:41;3.77;;;2.50;;
26906;SDS011;14472;56.880;16.658;2023-11-19T05:58:29;3.87;;;2.70;;
26906;SDS011;14472;56.880;16.658;2023-11-19T06:00:56;3.80;;;2.40;;
26906;SDS011;14472;56.880;16.658;2023-11-19T06:03:22;4.30;;;2.60;;
26906;SDS011;14472;56.880;16.658;2023-11-19T06:05:48;2.90;;;2.20;;
26906;SDS011;14472;56.880;16.658;2023-11-19T06:08:15;5.60;;;2.63;;
26906;SDS011;14472;56.880;16.658;2023-11-19T06:10:41;3.60;;;2.43;;
26906;SDS011;14472;56.880;16.658;2023-11-19T06:13:08;2.97;;;2.30;;
26906;SDS011;14472;56.880;16.658;2023-11-19T06:15:35;2.33;;;1.93;;
26906;SDS011;14472;56.880;16.658;2023-11-19T06:18:01;3.80;;;2.40;;
26906;SDS011;14472;56.880;16.658;2023-11-19T06:20:28;3.33;;;2.40;;
26906;SDS011;14472;56.880;16.658;2023-11-19T06:22:55;4.50;;;2.80;;
26906;SDS011;14472;56.880;16.658;2023-11-19T06:25:21;3.37;;;2.80;;
26906;SDS011;14472;56.880;16.658;2023-11-19T06:27:49;4.30;;;2.70;;
26906;SDS011;14472;56.880;16.658;2023-11-19T06:30:18;6.30;;;2.67;;
26906;SDS011;14472;56.880;16.658;2023-11-19T06:32:45;3.67;;;2.70;;
26906;SDS011;14472;56.880;16.658;2023-11-19T06:35:11;3.60;;;2.43;;
26906;SDS011;14472;56.880;16.658;2023-11-19T06:37:39;5.57;;;2.70;;
26906;SDS011;14472;56.880;16.658;2023-11-19T06:40:05;3.03;;;2.10;;
26906;SDS011;14472;56.880;16.658;2023-11-19T06:42:31;5.30;;;2.60;;
26906;SDS011;14472;56.880;16.658;2023-11-19T06:44:58;3.60;;;2.40;;
26906;SDS011;14472;56.880;16.658;2023-11-19T06:47:27;3.80;;;2.50;;
26906;SDS011;14472;56.880;16.658;2023-11-19T06:49:53;4.27;;;3.10;;
26906;SDS011;14472;56.880;16.658;2023-11-19T06:52:19;5.73;;;3.00;;
26906;SDS011;14472;56.880;16.658;2023-11-19T06:54:45;5.80;;;2.87;;
26906;SDS011;14472;56.880;16.658;2023-11-19T06:57:11;5.17;;;2.97;;
26906;SDS011;14472;56.880;16.658;2023-11-19T06:59:37;3.73;;;3.07;;
26906;SDS011;14472;56.880;16.658;2023-11-19T07:02:04;3.33;;;2.40;;
26906;SDS011;14472;56.880;16.658;2023-11-19T07:04:30;3.73;;;2.67;;
26906;SDS011;14472;56.880;16.658;2023-11-19T07:06:56;4.73;;;3.00;;
26906;SDS011;14472;56.880;16.658;2023-11-19T07:09:22;6.17;;;3.30;;
26906;SDS011;14472;56.880;16.658;2023-11-19T07:11:48;3.83;;;2.93;;
26906;SDS011;14472;56.880;16.658;2023-11-19T07:14:15;4.93;;;3.20;;
26906;SDS011;14472;56.880;16.658;2023-11-19T07:16:41;4.30;;;2.73;;
26906;SDS011;14472;56.880;16.658;2023-11-19T07:19:07;3.90;;;2.50;;
26906;SDS011;14472;56.880;16.658;2023-11-19T07:21:34;4.63;;;2.60;;
26906;SDS011;14472;56.880;16.658;2023-11-19T07:24:00;4.67;;;2.43;;
26906;SDS011;14472;56.880;16.658;2023-11-19T07:26:27;3.97;;;2.83;;
26906;SDS011;14472;56.880;16.658;2023-11-19T07:28:52;3.93;;;2.27;;
26906;SDS011;14472;56.880;16.658;2023-11-19T07:31:18;4.87;;;2.60;;
26906;SDS011;14472;56.880;16.658;2023-11-19T07:33:45;4.90;;;2.57;;
26906;SDS011;14472;56.880;16.658;2023-11-19T07:36:11;4.80;;;2.37;;
26906;SDS011;14472;56.880;16.658;2023-11-19T07:38:37;5.00;;;2.20;;
26906;SDS011;14472;56.880;16.658;2023-11-19T07:41:04;3.23;;;2.50;;
26906;SDS011;14472;56.880;16.658;2023-11-19T07:43:31;3.97;;;2.70;;
26906;SDS011;14472;56.880;16.658;2023-11-19T07:45:56;5.90;;;2.70;;
26906;SDS011;14472;56.880;16.658;2023-11-19T07:48:24;3.87;;;2.30;;
26906;SDS011;14472;56.880;16.658;2023-11-19T07:50:51;3.37;;;2.30;;
26906;SDS011;14472;56.880;16.658;2023-11-19T07:53:17;5.03;;;2.60;;
26906;SDS011;14472;56.880;16.658;2023-11-19T07:55:43;4.77;;;2.50;;
26906;SDS011;14472;56.880;16.658;2023-11-19T07:58:10;4.07;;;2.60;;
26906;SDS011;14472;56.880;16.658;2023-11-19T08:00:35;4.57;;;2.30;;
26906;SDS011;14472;56.880;16.658;2023-11-19T08:03:02;6.37;;;2.60;;
26906;SDS011;14472;56.880;16.658;2023-11-19T08:05:28;4.27;;;2.70;;
26906;SDS011;14472;56.880;16.658;2023-11-19T08:07:54;7.53;;;3.17;;
26906;SDS011;14472;56.880;16.658;2023-11-19T08:10:19;5.10;;;2.47;;
26906;SDS011;14472;56.880;16.658;2023-11-19T08:12:45;3.03;;;2.40;;
26906;SDS011;14472;56.880;16.658;2023-11-19T08:15:11;4.60;;;2.80;;
26906;SDS011;14472;56.880;16.658;2023-11-19T08:17:37;4.43;;;2.50;;
26906;SDS011;14472;56.880;16.658;2023-11-19T08:20:03;2.93;;;2.30;;
26906;SDS011;14472;56.880;16.658;2023-11-19T08:22:30;2.80;;;2.40;;
26906;SDS011;14472;56.880;16.658;2023-11-19T08:24:56;3.27;;;2.00;;
26906;SDS011;14472;56.880;16.658;2023-11-19T08:27:22;4.57;;;2.20;;
26906;SDS011;14472;56.880;16.658;2023-11-19T08:29:54;2.50;;;1.93;;
26906;SDS011;14472;56.880;16.658;2023-11-19T08:32:24;3.73;;;1.97;;
26906;SDS011;14472;56.880;16.658;2023-11-19T08:34:50;2.10;;;1.67;;
26906;SDS011;14472;56.880;16.658;2023-11-19T08:37:16;3.70;;;2.73;;
26906;SDS011;14472;56.880;16.658;2023-11-19T08:39:45;4.00;;;2.40;;
26906;SDS011;14472;56.880;16.658;2023-11-19T08:42:14;4.73;;;2.80;;
26906;SDS011;14472;56.880;16.658;2023-11-19T08:44:41;2.37;;;1.90;;
26906;SDS011;14472;56.880;16.658;2023-11-19T08:47:09;3.90;;;2.30;;
26906;SDS011;14472;56.880;16.658;2023-11-19T08:49:36;5.17;;;2.43;;
26906;SDS011;14472;56.880;16.658;2023-11-19T08:52:02;2.67;;;2.00;;
26906;SDS011;14472;56.880;16.658;2023-11-19T08:54:27;3.20;;;2.20;;
26906;SDS011;14472;56.880;16.658;2023-11-19T08:56:53;3.13;;;2.40;;
26906;SDS011;14472;56.880;16.658;2023-11-19T08:59:19;5.03;;;2.50;;
26906;SDS011;14472;56.880;16.658;2023-11-19T09:01:44;3.77;;;2.23;;
26906;SDS011;14472;56.880;16.658;2023-11-19T09:04:10;4.70;;;2.57;;
26906;SDS011;14472;56.880;16.658;2023-11-19T09:06:36;3.47;;;2.53;;
26906;SDS011;14472;56.880;16.658;2023-11-19T09:09:02;3.53;;;2.57;;
26906;SDS011;14472;56.880;16.658;2023-11-19T09:11:30;3.87;;;2.60;;
26906;SDS011;14472;56.880;16.658;2023-11-19T09:13:56;5.77;;;2.77;;
26906;SDS011;14472;56.880;16.658;2023-11-19T09:16:22;3.80;;;2.53;;
26906;SDS011;14472;56.880;16.658;2023-11-19T09:18:49;3.73;;;2.93;;
26906;SDS011;14472;56.880;16.658;2023-11-19T09:21:15;4.57;;;2.20;;
26906;SDS011;14472;56.880;16.658;2023-11-19T09:23:40;4.53;;;2.90;;
26906;SDS011;14472;56.880;16.658;2023-11-19T09:26:06;4.37;;;2.87;;
26906;SDS011;14472;56.880;16.658;2023-11-19T09:28:35;4.03;;;2.80;;
26906;SDS011;14472;56.880;16.658;2023-11-19T09:31:00;3.73;;;2.87;;
26906;SDS011;14472;56.880;16.658;2023-11-19T09:33:29;3.87;;;2.40;;
26906;SDS011;14472;56.880;16.658;2023-11-19T09:35:55;3.97;;;2.57;;
26906;SDS011;14472;56.880;16.658;2023-11-19T09:38:21;5.40;;;3.07;;
26906;SDS011;14472;56.880;16.658;2023-11-19T09:40:47;4.13;;;2.70;;
26906;SDS011;14472;56.880;16.658;2023-11-19T09:43:13;3.80;;;2.60;;
26906;SDS011;14472;56.880;16.658;2023-11-19T09:45:48;3.17;;;2.30;;
26906;SDS011;14472;56.880;16.658;2023-11-19T09:48:16;4.27;;;2.90;;
26906;SDS011;14472;56.880;16.658;2023-11-19T09:50:44;3.43;;;2.53;;
26906;SDS011;14472;56.880;16.658;2023-11-19T09:53:14;6.60;;;2.40;;
26906;SDS011;14472;56.880;16.658;2023-11-19T09:55:40;3.00;;;2.00;;
26906;SDS011;14472;56.880;16.658;2023-11-19T09:58:06;3.47;;;2.13;;
26906;SDS011;14472;56.880;16.658;2023-11-19T10:00:33;2.87;;;2.27;;
26906;SDS011;14472;56.880;16.658;2023-11-19T10:02:59;3.70;;;1.80;;
26906;SDS011;14472;56.880;16.658;2023-11-19T10:05:25;2.50;;;1.90;;
26906;SDS011;14472;56.880;16.658;2023-11-19T10:07:51;3.10;;;1.97;;
26906;SDS011;14472;56.880;16.658;2023-11-19T10:10:18;2.40;;;1.80;;
26906;SDS011;14472;56.880;16.658;2023-11-19T10:12:47;3.07;;;1.90;;
26906;SDS011;14472;56.880;16.658;2023-11-19T10:15:22;2.57;;;2.10;;
26906;SDS011;14472;56.880;16.658;2023-11-19T10:17:49;2.63;;;2.10;;
26906;SDS011;14472;56.880;16.658;2023-11-19T10:20:16;2.37;;;2.00;;
26906;SDS011;14472;56.880;16.658;2023-11-19T10:22:42;2.37;;;1.87;;
26906;SDS011;14472;56.880;16.658;2023-11-19T10:25:21;4.40;;;1.70;;
26906;SDS011;14472;56.880;16.658;2023-11-19T10:27:51;4.23;;;3.20;;
26906;SDS011;14472;56.880;16.658;2023-11-19T10:30:20;4.20;;;2.50;;
26906;SDS011;14472;56.880;16.658;2023-11-19T10:33:13;2.93;;;1.67;;
26906;SDS011;14472;56.880;16.658;2023-11-19T10:35:51;1.83;;;1.60;;
26906;SDS011;14472;56.880;16.658;2023-11-19T10:38:19;4.93;;;1.87;;
26906;SDS011;14472;56.880;16.658;2023-11-19T10:40:45;2.60;;;2.00;;
26906;SDS011;14472;56.880;16.658;2023-11-19T10:43:12;2.80;;;1.90;;
26906;SDS011;14472;56.880;16.658;2023-11-19T10:45:38;2.47;;;1.87;;
26906;SDS011;14472;56.880;16.658;2023-11-19T10:48:04;2.37;;;1.73;;
26906;SDS011;14472;56.880;16.658;2023-11-19T10:50:35;1.93;;;1.77;;
26906;SDS011;14472;56.880;16.658;2023-11-19T10:53:02;2.93;;;1.83;;
26906;SDS011;14472;56.880;16.658;2023-11-19T10:55:32;3.30;;;2.10;;
26906;SDS011;14472;56.880;16.658;2023-11-19T10:58:06;4.80;;;2.37;;
26906;SDS011;14472;56.880;16.658;2023-11-19T11:00:41;2.97;;;2.00;;
26906;SDS011;14472;56.880;16.658;2023-11-19T11:03:18;2.97;;;2.30;;
26906;SDS011;14472;56.880;16.658;2023-11-19T11:05:48;2.20;;;1.80;;
26906;SDS011;14472;56.880;16.658;2023-11-19T11:08:16;4.23;;;2.03;;
26906;SDS011;14472;56.880;16.658;2023-11-19T11:10:43;2.80;;;1.90;;
26906;SDS011;14472;56.880;16.658;2023-11-19T11:13:10;3.47;;;1.87;;
26906;SDS011;14472;56.880;16.658;2023-11-19T11:15:38;3.20;;;1.90;;
26906;SDS011;14472;56.880;16.658;2023-11-19T11:18:07;2.43;;;1.83;;
26906;SDS011;14472;56.880;16.658;2023-11-19T11:20:34;3.70;;;1.87;;
26906;SDS011;14472;56.880;16.658;2023-11-19T11:26:15;2.70;;;2.00;;
26906;SDS011;14472;56.880;16.658;2023-11-19T11:39:39;3.00;;;1.97;;
26906;SDS011;14472;56.880;16.658;2023-11-19T11:45:04;2.13;;;1.93;;
26906;SDS011;14472;56.880;16.658;2023-11-19T11:55:28;3.00;;;2.03;;
26906;SDS011;14472;56.880;16.658;2023-11-19T11:57:59;3.17;;;1.90;;
26906;SDS011;14472;56.880;16.658;2023-11-19T12:03:02;3.37;;;2.23;;
26906;SDS011;14472;56.880;16.658;2023-11-19T12:05:29;3.70;;;2.60;;
26906;SDS011;14472;56.880;16.658;2023-11-19T12:08:01;3.33;;;2.30;;
26906;SDS011;14472;56.880;16.658;2023-11-19T12:10:30;4.53;;;2.10;;
26906;SDS011;14472;56.880;16.658;2023-11-19T12:13:00;3.10;;;2.13;;
26906;SDS011;14472;56.880;16.658;2023-11-19T12:15:26;2.60;;;2.10;;
26906;SDS011;14472;56.880;16.658;2023-11-19T12:17:54;4.83;;;2.17;;
26906;SDS011;14472;56.880;16.658;2023-11-19T12:20:21;4.37;;;2.07;;
26906;SDS011;14472;56.880;16.658;2023-11-19T12:22:48;2.87;;;1.80;;
26906;SDS011;14472;56.880;16.658;2023-11-19T12:25:15;3.57;;;2.27;;
26906;SDS011;14472;56.880;16.658;2023-11-19T12:27:52;2.80;;;1.90;;
26906;SDS011;14472;56.880;16.658;2023-11-19T12:32:51;2.67;;;1.87;;
26906;SDS011;14472;56.880;16.658;2023-11-19T12:35:18;2.93;;;1.97;;
26906;SDS011;14472;56.880;16.658;2023-11-19T12:37:51;3.03;;;2.10;;
26906;SDS011;14472;56.880;16.658;2023-11-19T12:40:22;2.23;;;1.70;;
26906;SDS011;14472;56.880;16.658;2023-11-19T12:42:49;5.30;;;2.03;;
26906;SDS011;14472;56.880;16.658;2023-11-19T12:45:16;3.30;;;1.90;;
26906;SDS011;14472;56.880;16.658;2023-11-19T12:47:42;2.80;;;1.90;;
26906;SDS011;14472;56.880;16.658;2023-11-19T12:50:09;2.33;;;1.73;;
26906;SDS011;14472;56.880;16.658;2023-11-19T12:52:36;2.23;;;1.90;;
26906;SDS011;14472;56.880;16.658;2023-11-19T12:55:03;3.87;;;2.00;;
26906;SDS011;14472;56.880;16.658;2023-11-19T12:57:36;2.37;;;1.77;;
26906;SDS011;14472;56.880;16.658;2023-11-19T13:00:06;2.17;;;1.83;;
26906;SDS011;14472;56.880;16.658;2023-11-19T13:02:44;3.20;;;1.80;;
26906;SDS011;14472;56.880;16.658;2023-11-19T13:05:31;2.87;;;1.67;;
26906;SDS011;14472;56.880;16.658;2023-11-19T13:08:04;2.73;;;1.50;;
26906;SDS011;14472;56.880;16.658;2023-11-19T13:10:33;2.17;;;1.90;;
26906;SDS011;14472;56.880;16.658;2023-11-19T13:13:13;3.40;;;1.87;;
26906;SDS011;14472;56.880;16.658;2023-11-19T13:15:39;3.77;;;2.30;;
26906;SDS011;14472;56.880;16.658;2023-11-19T13:18:05;7.83;;;2.50;;
26906;SDS011;14472;56.880;16.658;2023-11-19T13:20:31;3.83;;;2.40;;
26906;SDS011;14472;56.880;16.658;2023-11-19T13:22:58;3.70;;;2.10;;
26906;SDS011;14472;56.880;16.658;2023-11-19T13:25:25;2.93;;;2.13;;
26906;SDS011;14472;56.880;16.658;2023-11-19T13:27:52;4.17;;;2.20;;
26906;SDS011;14472;56.880;16.658;2023-11-19T13:30:19;3.13;;;1.90;;
26906;SDS011;14472;56.880;16.658;2023-11-19T13:32:45;3.60;;;2.37;;
26906;SDS011;14472;56.880;16.658;2023-11-19T13:35:11;3.47;;;2.13;;
26906;SDS011;14472;56.880;16.658;2023-11-19T13:37:38;2.17;;;1.97;;
26906;SDS011;14472;56.880;16.658;2023-11-19T13:40:04;2.43;;;1.80;;
26906;SDS011;14472;56.880;16.658;2023-11-19T13:42:31;2.87;;;1.97;;
26906;SDS011;14472;56.880;16.658;2023-11-19T13:44:57;2.67;;;1.83;;
26906;SDS011;14472;56.880;16.658;2023-11-19T13:47:22;2.20;;;1.90;;
26906;SDS011;14472;56.880;16.658;2023-11-19T13:49:49;2.80;;;1.93;;
26906;SDS011;14472;56.880;16.658;2023-11-19T13:52:15;2.40;;;1.80;;
26906;SDS011;14472;56.880;16.658;2023-11-19T13:54:41;2.03;;;1.70;;
26906;SDS011;14472;56.880;16.658;2023-11-19T13:57:06;2.57;;;1.93;;
26906;SDS011;14472;56.880;16.658;2023-11-19T13:59:32;2.33;;;2.03;;
26906;SDS011;14472;56.880;16.658;2023-11-19T14:01:58;2.50;;;1.80;;
26906;SDS011;14472;56.880;16.658;2023-11-19T14:04:24;3.77;;;2.07;;
26906;SDS011;14472;56.880;16.658;2023-11-19T14:06:50;3.13;;;1.77;;
26906;SDS011;14472;56.880;16.658;2023-11-19T14:09:16;3.87;;;2.83;;
26906;SDS011;14472;56.880;16.658;2023-11-19T14:11:42;2.70;;;1.70;;
26906;SDS011;14472;56.880;16.658;2023-11-19T14:14:08;2.97;;;1.70;;
26906;SDS011;14472;56.880;16.658;2023-11-19T14:16:34;2.73;;;1.80;;
26906;SDS011;14472;56.880;16.658;2023-11-19T14:19:00;2.23;;;1.83;;
26906;SDS011;14472;56.880;16.658;2023-11-19T14:21:25;2.77;;;1.50;;
26906;SDS011;14472;56.880;16.658;2023-11-19T14:23:52;2.07;;;1.70;;
26906;SDS011;14472;56.880;16.658;2023-11-19T14:26:18;3.03;;;1.70;;
26906;SDS011;14472;56.880;16.658;2023-11-19T14:28:44;3.27;;;1.60;;
26906;SDS011;14472;56.880;16.658;2023-11-19T14:31:09;2.87;;;1.37;;
26906;SDS011;14472;56.880;16.658;2023-11-19T14:33:35;1.60;;;1.50;;
26906;SDS011;14472;56.880;16.658;2023-11-19T14:36:03;1.70;;;1.60;;
26906;SDS011;14472;56.880;16.658;2023-11-19T14:38:30;2.47;;;1.40;;
26906;SDS011;14472;56.880;16.658;2023-11-19T14:40:57;2.53;;;1.43;;
26906;SDS011;14472;56.880;16.658;2023-11-19T14:43:24;1.50;;;1.40;;
26906;SDS011;14472;56.880;16.658;2023-11-19T14:45:51;3.37;;;2.17;;
26906;SDS011;14472;56.880;16.658;2023-11-19T14:48:17;2.60;;;1.60;;
26906;SDS011;14472;56.880;16.658;2023-11-19T14:50:43;2.00;;;1.70;;
26906;SDS011;14472;56.880;16.658;2023-11-19T14:53:09;3.47;;;1.80;;
26906;SDS011;14472;56.880;16.658;2023-11-19T14:55:35;1.63;;;1.50;;
26906;SDS011;14472;56.880;16.658;2023-11-19T14:58:02;2.53;;;1.30;;
26906;SDS011;14472;56.880;16.658;2023-11-19T15:00:29;1.97;;;1.50;;
26906;SDS011;14472;56.880;16.658;2023-11-19T15:02:54;2.50;;;1.50;;
26906;SDS011;14472;56.880;16.658;2023-11-19T15:05:21;1.53;;;1.33;;